createdAt,value
2023-01-28T00:11:04.901Z,101322.47
2023-01-28T00:26:12.574Z,101319.66
2023-01-28T00:41:19.238Z,101312.88
2023-01-28T00:56:22.525Z,101309.27
2023-01-28T01:11:27.050Z,101309.26
2023-01-28T01:26:30.373Z,101314.10
2023-01-28T01:41:34.229Z,101301.80
2023-01-28T01:56:43.305Z,101312.58
2023-01-28T02:11:46.796Z,101303.56
2023-01-28T02:27:08.170Z,101290.30
2023-01-28T02:42:18.144Z,101290.95
2023-01-28T02:57:38.522Z,101287.02
2023-01-28T03:13:02.800Z,101287.00
2023-01-28T03:28:30.177Z,101281.68
2023-01-28T03:43:35.813Z,101277.25
2023-01-28T03:58:56.877Z,101280.38
2023-01-28T04:14:00.306Z,101293.66
2023-01-28T04:29:11.108Z,101296.22
2023-01-28T04:44:17.391Z,101285.13
2023-01-28T04:59:46.876Z,101293.42
2023-01-28T05:14:51.650Z,101303.84
2023-01-28T05:29:57.231Z,101312.55
2023-01-28T05:45:01.182Z,101314.06
2023-01-28T06:00:17.026Z,101325.11
2023-01-28T06:15:21.674Z,101326.27
2023-01-28T06:30:37.997Z,101338.49
2023-01-28T06:45:41.272Z,101349.38
2023-01-28T07:00:44.666Z,101359.09
2023-01-28T07:15:49.227Z,101361.46
2023-01-28T07:30:53.681Z,101363.60
2023-01-28T07:46:00.730Z,101365.66
2023-01-28T08:01:04.588Z,101368.64
2023-01-28T08:16:08.354Z,101369.37
2023-01-28T08:31:11.809Z,101371.84
2023-01-28T08:46:15.614Z,101379.28
2023-01-28T09:01:18.967Z,101375.36
2023-01-28T09:16:22.686Z,101363.94
2023-01-28T09:31:26.313Z,101361.75
2023-01-28T09:46:34.354Z,101356.81
2023-01-28T10:01:53.278Z,101356.58
2023-01-28T10:17:26.778Z,101352.90
2023-01-28T10:32:35.895Z,101359.90
2023-01-28T10:47:44.148Z,101360.52
2023-01-28T11:02:49.802Z,101358.14
2023-01-28T11:18:11.296Z,101349.38
2023-01-28T11:33:18.999Z,101333.73
2023-01-28T11:48:41.263Z,101340.20
2023-01-28T12:04:15.864Z,101323.57
2023-01-28T12:19:34.078Z,101321.80
2023-01-28T12:35:11.268Z,101313.30
2023-01-28T12:50:26.029Z,101296.80
2023-01-28T13:05:38.103Z,101299.55
2023-01-28T13:20:49.034Z,101294.76
2023-01-28T13:35:55.619Z,101290.52
2023-01-28T13:51:01.169Z,101290.59
2023-01-28T14:06:04.329Z,101294.70
2023-01-28T14:21:17.565Z,101301.87
2023-01-28T14:36:21.241Z,101306.95
2023-01-28T14:51:43.015Z,101306.25
2023-01-28T15:06:49.022Z,101296.17
2023-01-28T15:22:04.565Z,101287.86
2023-01-28T15:37:11.336Z,101272.05
2023-01-28T15:52:15.417Z,101257.27
2023-01-28T16:07:19.492Z,101259.84
2023-01-28T16:22:33.523Z,101254.36
2023-01-28T16:37:39.343Z,101279.60
2023-01-28T16:52:46.532Z,101296.36
2023-01-28T17:07:50.561Z,101301.39
2023-01-28T17:22:54.915Z,101306.67
2023-01-28T17:37:58.229Z,101299.22
2023-01-28T17:53:01.467Z,101283.98
2023-01-28T18:08:05.033Z,101276.64
2023-01-28T18:23:12.343Z,101265.47
2023-01-28T18:38:18.480Z,101292.23
2023-01-28T18:53:26.383Z,101292.54
2023-01-28T19:08:34.513Z,101297.63
2023-01-28T19:23:49.510Z,101281.02
2023-01-28T19:38:57.945Z,101278.08
2023-01-28T19:54:01.379Z,101292.88
2023-01-28T20:09:08.208Z,101277.08
2023-01-28T20:24:13.418Z,101270.17
2023-01-28T20:39:17.845Z,101250.45
2023-01-28T20:54:21.764Z,101245.48
2023-01-28T21:09:26.170Z,101245.14
2023-01-28T21:24:32.440Z,101238.83
2023-01-28T21:39:39.517Z,101242.34
2023-01-28T21:54:43.022Z,101223.54
2023-01-28T22:09:47.835Z,101228.18
2023-01-28T22:24:51.636Z,101219.23
2023-01-28T22:39:56.219Z,101215.09
2023-01-28T22:54:59.618Z,101208.84
2023-01-28T23:10:04.086Z,101193.69
2023-01-28T23:25:08.176Z,101167.66
2023-01-28T23:40:12.860Z,101135.43
2023-01-28T23:55:16.272Z,101109.11
